createdAt,value
2022-10-03T00:00:51.807Z,997.90
2022-10-03T00:01:51.772Z,997.89
2022-10-03T00:02:51.693Z,997.89
2022-10-03T00:03:51.568Z,997.86
2022-10-03T00:04:51.485Z,997.92
2022-10-03T00:05:51.405Z,997.92
2022-10-03T00:06:51.326Z,997.92
2022-10-03T00:07:51.245Z,997.95
2022-10-03T00:08:51.165Z,997.98
2022-10-03T00:09:51.085Z,997.97
2022-10-03T00:10:51.007Z,998.03
2022-10-03T00:11:50.927Z,998.03
2022-10-03T00:12:50.859Z,998.05
2022-10-03T00:13:50.785Z,998.05
2022-10-03T00:14:50.689Z,998.06
2022-10-03T00:15:50.626Z,998.01
2022-10-03T00:16:50.530Z,998.00
2022-10-03T00:17:50.447Z,997.99
2022-10-03T00:18:50.367Z,998.02
2022-10-03T00:19:50.286Z,998.06
2022-10-03T00:20:50.208Z,998.09
2022-10-03T00:21:50.126Z,998.09
2022-10-03T00:22:50.149Z,998.11
2022-10-03T00:23:49.966Z,998.11
2022-10-03T00:24:49.886Z,998.11
2022-10-03T00:25:49.806Z,998.05
2022-10-03T00:26:49.727Z,998.05
2022-10-03T00:27:49.702Z,998.05
2022-10-03T00:28:49.565Z,998.06
2022-10-03T00:29:49.505Z,998.06
2022-10-03T00:30:49.404Z,998.07
2022-10-03T00:31:49.383Z,998.06
2022-10-03T00:32:49.242Z,998.04
2022-10-03T00:33:49.162Z,998.12
2022-10-03T00:34:49.085Z,998.10
2022-10-03T00:35:49.003Z,998.09
2022-10-03T00:36:48.922Z,998.10
2022-10-03T00:37:48.840Z,998.12
2022-10-03T00:38:48.761Z,998.10
2022-10-03T00:39:48.681Z,998.12
2022-10-03T00:40:48.606Z,998.11
2022-10-03T00:41:48.516Z,998.10
2022-10-03T00:42:48.439Z,998.16
2022-10-03T00:43:48.358Z,998.17
2022-10-03T00:44:48.278Z,998.15
2022-10-03T00:45:48.211Z,998.16
2022-10-03T00:46:48.189Z,998.18
2022-10-03T00:47:48.035Z,998.15
2022-10-03T00:48:47.953Z,998.15
2022-10-03T00:49:47.874Z,998.14
2022-10-03T00:50:47.792Z,998.12
2022-10-03T00:51:47.710Z,998.13
2022-10-03T00:52:47.631Z,998.10
2022-10-03T00:53:47.549Z,998.09
2022-10-03T00:54:47.470Z,998.12
2022-10-03T00:55:47.387Z,998.12
2022-10-03T00:56:47.308Z,998.08
2022-10-03T00:57:47.226Z,998.07
2022-10-03T00:58:47.148Z,998.07
2022-10-03T00:59:48.198Z,998.10
2022-10-03T01:00:47.030Z,998.11
2022-10-03T01:01:47.038Z,998.12
2022-10-03T01:02:46.820Z,998.15
2022-10-03T01:03:46.737Z,998.14
2022-10-03T01:04:46.657Z,998.20
2022-10-03T01:05:46.574Z,998.15
2022-10-03T01:06:46.497Z,998.17
2022-10-03T01:07:46.414Z,998.12
2022-10-03T01:08:46.333Z,998.19
2022-10-03T01:09:46.253Z,998.18
2022-10-03T01:10:46.178Z,998.18
2022-10-03T01:11:46.090Z,998.18
2022-10-03T01:12:46.007Z,998.19
2022-10-03T01:13:45.928Z,998.16
2022-10-03T01:14:45.847Z,998.18
2022-10-03T01:15:45.801Z,998.16
2022-10-03T01:16:46.037Z,998.17
2022-10-03T01:17:45.619Z,998.20
2022-10-03T01:18:45.523Z,998.20
2022-10-03T01:19:45.441Z,998.25
2022-10-03T01:20:45.363Z,998.26
2022-10-03T01:21:45.277Z,998.29
2022-10-03T01:22:45.198Z,998.31
2022-10-03T01:23:45.116Z,998.31
2022-10-03T01:24:45.037Z,998.33
2022-10-03T01:25:44.953Z,998.36
2022-10-03T01:26:45.022Z,998.37
2022-10-03T01:27:44.790Z,998.36
2022-10-03T01:28:44.711Z,998.35
2022-10-03T01:29:44.631Z,998.37
2022-10-03T01:30:44.546Z,998.40
2022-10-03T01:31:44.764Z,998.42
2022-10-03T01:32:44.386Z,998.38
2022-10-03T01:33:44.391Z,998.40
2022-10-03T01:34:44.221Z,998.39
2022-10-03T01:35:44.145Z,998.45
2022-10-03T01:36:44.057Z,998.44
2022-10-03T01:37:43.976Z,998.40
2022-10-03T01:38:43.895Z,998.43
2022-10-03T01:39:43.863Z,998.47
2022-10-03T01:40:43.733Z,998.48
2022-10-03T01:41:43.649Z,998.50
2022-10-03T01:42:43.570Z,998.52
2022-10-03T01:43:43.486Z,998.49
2022-10-03T01:44:43.407Z,998.54
2022-10-03T01:45:43.323Z,998.56
2022-10-03T01:46:43.311Z,998.55
2022-10-03T01:47:43.160Z,998.56
2022-10-03T01:48:43.077Z,998.60
2022-10-03T01:49:43.016Z,998.61
2022-10-03T01:50:42.917Z,998.61
2022-10-03T01:51:42.955Z,998.62
2022-10-03T01:52:42.752Z,998.61
2022-10-03T01:53:42.672Z,998.57
2022-10-03T01:54:42.589Z,998.57
2022-10-03T01:55:42.508Z,998.59
2022-10-03T01:56:42.426Z,998.59
2022-10-03T01:57:42.342Z,998.58
2022-10-03T01:58:42.263Z,998.61
2022-10-03T01:59:42.181Z,998.60
2022-10-03T02:00:42.131Z,998.61
2022-10-03T02:01:42.263Z,998.60
2022-10-03T02:02:41.944Z,998.64
2022-10-03T02:03:41.854Z,998.61
2022-10-03T02:04:41.775Z,998.65
2022-10-03T02:05:41.709Z,998.63
2022-10-03T02:06:41.612Z,998.66
2022-10-03T02:07:41.527Z,998.67
2022-10-03T02:08:41.449Z,998.67
2022-10-03T02:09:41.366Z,998.68
2022-10-03T02:10:41.288Z,998.67
2022-10-03T02:11:41.608Z,998.61
2022-10-03T02:12:41.124Z,998.65
2022-10-03T02:13:41.038Z,998.65
2022-10-03T02:14:40.957Z,998.65
2022-10-03T02:15:40.874Z,998.65
2022-10-03T02:16:40.816Z,998.63
2022-10-03T02:17:40.711Z,998.65
2022-10-03T02:18:40.633Z,998.64
2022-10-03T02:19:40.550Z,998.64
2022-10-03T02:20:40.470Z,998.64
2022-10-03T02:21:40.898Z,998.64
2022-10-03T02:22:40.302Z,998.67
2022-10-03T02:23:40.221Z,998.67
2022-10-03T02:24:40.141Z,998.67
2022-10-03T02:25:40.058Z,998.69
2022-10-03T02:26:39.976Z,998.67
2022-10-03T02:27:39.897Z,998.71
2022-10-03T02:28:39.815Z,998.71
2022-10-03T02:29:39.734Z,998.71
2022-10-03T02:30:39.653Z,998.72
2022-10-03T02:31:39.987Z,998.71
2022-10-03T02:32:39.489Z,998.73
2022-10-03T02:33:39.405Z,998.71
2022-10-03T02:34:39.323Z,998.72
2022-10-03T02:35:39.243Z,998.73
2022-10-03T02:36:39.161Z,998.71
2022-10-03T02:37:39.098Z,998.71
2022-10-03T02:38:38.997Z,998.71
2022-10-03T02:39:38.916Z,998.74
2022-10-03T02:40:38.837Z,998.74
2022-10-03T02:41:39.043Z,998.73
2022-10-03T02:42:38.672Z,998.73
2022-10-03T02:43:38.590Z,998.72
2022-10-03T02:44:38.510Z,998.73
2022-10-03T02:45:38.504Z,998.71
2022-10-03T02:46:38.355Z,998.70
2022-10-03T02:47:38.263Z,998.67
2022-10-03T02:48:38.182Z,998.66
2022-10-03T02:49:38.100Z,998.68
2022-10-03T02:50:38.022Z,998.71
2022-10-03T02:51:38.302Z,998.66
2022-10-03T02:52:37.857Z,998.65
2022-10-03T02:53:37.802Z,998.66
2022-10-03T02:54:37.697Z,998.71
2022-10-03T02:55:37.613Z,998.69
2022-10-03T02:56:37.532Z,998.69
2022-10-03T02:57:37.448Z,998.75
2022-10-03T02:58:37.369Z,998.76
2022-10-03T02:59:37.288Z,998.74
2022-10-03T03:00:37.281Z,998.73
2022-10-03T03:01:37.434Z,998.77
2022-10-03T03:02:37.043Z,998.74
2022-10-03T03:03:36.963Z,998.71
2022-10-03T03:04:36.881Z,998.77
2022-10-03T03:05:36.798Z,998.75
2022-10-03T03:06:36.718Z,998.76
2022-10-03T03:07:36.636Z,998.77
2022-10-03T03:08:36.555Z,998.76
2022-10-03T03:09:36.562Z,998.77
2022-10-03T03:10:36.392Z,998.77
2022-10-03T03:11:36.637Z,998.77
2022-10-03T03:12:41.083Z,998.75
2022-10-03T03:13:36.148Z,998.77
2022-10-03T03:14:36.069Z,998.82
2022-10-03T03:15:35.988Z,998.78
2022-10-03T03:16:36.046Z,998.83
2022-10-03T03:17:35.826Z,998.80
2022-10-03T03:18:35.742Z,998.87
2022-10-03T03:19:35.662Z,998.86
2022-10-03T03:20:35.580Z,998.83
2022-10-03T03:21:35.500Z,998.83
2022-10-03T03:22:35.421Z,998.80
2022-10-03T03:23:35.336Z,998.85
2022-10-03T03:24:35.255Z,998.83
2022-10-03T03:25:35.290Z,998.85
2022-10-03T03:26:35.092Z,998.85
2022-10-03T03:27:35.011Z,998.87
2022-10-03T03:28:35.128Z,998.88
2022-10-03T03:29:34.848Z,998.90
2022-10-03T03:30:34.765Z,998.93
2022-10-03T03:31:34.714Z,998.91
2022-10-03T03:32:34.603Z,998.91
2022-10-03T03:33:34.773Z,998.95
2022-10-03T03:34:34.440Z,998.97
2022-10-03T03:35:34.360Z,999.01
2022-10-03T03:36:34.277Z,999.03
2022-10-03T03:37:34.345Z,999.00
2022-10-03T03:38:34.114Z,999.02
2022-10-03T03:39:34.037Z,999.05
2022-10-03T03:40:33.949Z,999.03
2022-10-03T03:41:33.889Z,998.99
2022-10-03T03:42:33.788Z,999.05
2022-10-03T03:43:33.708Z,999.00
2022-10-03T03:44:33.627Z,999.03
2022-10-03T03:45:33.594Z,999.01
2022-10-03T03:46:33.460Z,999.01
2022-10-03T03:47:33.381Z,999.01
2022-10-03T03:48:33.296Z,999.01
2022-10-03T03:49:33.265Z,999.04
2022-10-03T03:50:33.134Z,999.01
2022-10-03T03:51:33.057Z,999.03
2022-10-03T03:52:32.971Z,999.04
2022-10-03T03:53:32.891Z,999.06
2022-10-03T03:54:32.809Z,999.04
2022-10-03T03:55:32.727Z,999.09
2022-10-03T03:56:32.647Z,999.07
2022-10-03T03:57:32.647Z,999.05
2022-10-03T03:58:32.487Z,999.08
2022-10-03T03:59:32.401Z,999.08
2022-10-03T04:00:32.317Z,999.08
2022-10-03T04:01:32.290Z,999.10
2022-10-03T04:02:32.247Z,999.13
2022-10-03T04:03:32.075Z,999.11
2022-10-03T04:04:31.989Z,999.10
2022-10-03T04:05:31.912Z,999.07
2022-10-03T04:06:31.829Z,999.08
2022-10-03T04:07:31.746Z,999.09
2022-10-03T04:08:31.662Z,999.07
2022-10-03T04:09:31.584Z,999.06
2022-10-03T04:10:31.499Z,999.07
2022-10-03T04:11:31.420Z,999.10
2022-10-03T04:12:31.336Z,999.13
2022-10-03T04:13:31.273Z,999.14
2022-10-03T04:14:31.184Z,999.11
2022-10-03T04:15:31.093Z,999.10
2022-10-03T04:16:31.057Z,999.17
2022-10-03T04:17:30.930Z,999.17
2022-10-03T04:18:30.847Z,999.17
2022-10-03T04:19:30.766Z,999.17
2022-10-03T04:20:30.681Z,999.18
2022-10-03T04:21:30.602Z,999.20
2022-10-03T04:22:30.518Z,999.22
2022-10-03T04:23:30.436Z,999.22
2022-10-03T04:24:30.403Z,999.22
2022-10-03T04:25:30.273Z,999.21
2022-10-03T04:26:30.191Z,999.20
2022-10-03T04:27:30.312Z,999.20
2022-10-03T04:28:30.079Z,999.19
2022-10-03T04:29:29.972Z,999.22
2022-10-03T04:30:29.868Z,999.22
2022-10-03T04:31:29.833Z,999.24
2022-10-03T04:32:29.702Z,999.26
2022-10-03T04:33:29.622Z,999.28
2022-10-03T04:34:29.736Z,999.28
2022-10-03T04:35:29.456Z,999.28
2022-10-03T04:36:29.374Z,999.32
2022-10-03T04:37:29.293Z,999.29
2022-10-03T04:38:29.211Z,999.29
2022-10-03T04:39:29.130Z,999.29
2022-10-03T04:40:29.245Z,999.30
2022-10-03T04:41:28.964Z,999.29
2022-10-03T04:42:28.885Z,999.32
2022-10-03T04:43:28.803Z,999.30
2022-10-03T04:44:28.721Z,999.34
2022-10-03T04:45:28.719Z,999.33
2022-10-03T04:46:28.555Z,999.27
2022-10-03T04:47:28.477Z,999.27
2022-10-03T04:48:28.392Z,999.26
2022-10-03T04:49:28.312Z,999.28
2022-10-03T04:50:28.231Z,999.28
2022-10-03T04:51:28.151Z,999.29
2022-10-03T04:52:28.067Z,999.31
2022-10-03T04:53:27.986Z,999.30
2022-10-03T04:54:28.004Z,999.31
2022-10-03T04:55:27.825Z,999.33
2022-10-03T04:56:27.741Z,999.35
2022-10-03T04:57:27.661Z,999.33
2022-10-03T04:58:27.578Z,999.33
2022-10-03T04:59:27.504Z,999.33
2022-10-03T05:00:27.417Z,999.35
2022-10-03T05:01:27.415Z,999.33
2022-10-03T05:02:27.343Z,999.29
2022-10-03T05:03:27.171Z,999.34
2022-10-03T05:04:27.091Z,999.39
2022-10-03T05:05:27.049Z,999.38
2022-10-03T05:06:26.927Z,999.38
2022-10-03T05:07:26.846Z,999.36
2022-10-03T05:08:26.764Z,999.39
2022-10-03T05:09:26.682Z,999.36
2022-10-03T05:10:26.600Z,999.40
2022-10-03T05:11:26.519Z,999.39
2022-10-03T05:12:26.438Z,999.38
2022-10-03T05:13:26.358Z,999.43
2022-10-03T05:14:26.275Z,999.45
2022-10-03T05:15:26.196Z,999.42
2022-10-03T05:16:26.198Z,999.47
2022-10-03T05:17:26.051Z,999.43
2022-10-03T05:18:27.187Z,999.47
2022-10-03T05:19:25.870Z,999.49
2022-10-03T05:20:25.798Z,999.50
2022-10-03T05:21:25.709Z,999.51
2022-10-03T05:22:25.624Z,999.49
2022-10-03T05:23:25.545Z,999.50
2022-10-03T05:24:25.466Z,999.52
2022-10-03T05:25:25.381Z,999.54
2022-10-03T05:26:45.049Z,999.54
2022-10-03T05:27:25.218Z,999.56
2022-10-03T05:28:25.221Z,999.58
2022-10-03T05:29:25.059Z,999.56
2022-10-03T05:30:24.977Z,999.59
2022-10-03T05:31:24.914Z,999.60
2022-10-03T05:32:24.813Z,999.57
2022-10-03T05:33:24.750Z,999.60
2022-10-03T05:34:24.651Z,999.60
2022-10-03T05:35:24.571Z,999.63
2022-10-03T05:36:24.489Z,999.66
2022-10-03T05:37:24.408Z,999.65
2022-10-03T05:38:24.328Z,999.65
2022-10-03T05:39:24.246Z,999.64
2022-10-03T05:40:24.168Z,999.66
2022-10-03T05:41:26.311Z,999.67
2022-10-03T05:42:24.084Z,999.62
2022-10-03T05:43:23.921Z,999.64
2022-10-03T05:44:23.840Z,999.63
2022-10-03T05:45:23.761Z,999.63
2022-10-03T05:46:23.869Z,999.67
2022-10-03T05:47:23.599Z,999.70
2022-10-03T05:48:23.665Z,999.70
2022-10-03T05:49:23.456Z,999.69
2022-10-03T05:50:23.355Z,999.70
2022-10-03T05:51:23.274Z,999.71
2022-10-03T05:52:23.253Z,999.69
2022-10-03T05:53:23.113Z,999.68
2022-10-03T05:54:23.028Z,999.69
2022-10-03T05:55:22.955Z,999.67
2022-10-03T05:56:22.869Z,999.70
2022-10-03T05:57:22.788Z,999.73
2022-10-03T05:58:22.708Z,999.73
2022-10-03T05:59:22.628Z,999.69
2022-10-03T06:00:22.548Z,999.72
2022-10-03T06:01:22.469Z,999.72
2022-10-03T06:02:22.524Z,999.73
2022-10-03T06:03:22.367Z,999.78
2022-10-03T06:04:22.220Z,999.78
2022-10-03T06:05:22.160Z,999.79
2022-10-03T06:06:22.060Z,999.80
2022-10-03T06:07:21.982Z,999.80
2022-10-03T06:08:21.899Z,999.82
2022-10-03T06:09:21.820Z,999.82
2022-10-03T06:10:21.737Z,999.82
2022-10-03T06:11:21.660Z,999.90
2022-10-03T06:12:21.575Z,999.87
2022-10-03T06:13:21.651Z,999.88
2022-10-03T06:14:21.416Z,999.91
2022-10-03T06:15:21.335Z,999.94
2022-10-03T06:16:21.367Z,999.96
2022-10-03T06:17:21.173Z,999.93
2022-10-03T06:18:21.090Z,999.94
2022-10-03T06:19:21.012Z,999.97
2022-10-03T06:20:20.930Z,999.93
2022-10-03T06:21:20.871Z,999.96
2022-10-03T06:22:20.767Z,999.95
2022-10-03T06:23:20.693Z,1000.01
2022-10-03T06:24:20.618Z,999.98
2022-10-03T06:25:20.527Z,1000.01
2022-10-03T06:26:20.446Z,999.98
2022-10-03T06:27:20.366Z,999.96
2022-10-03T06:28:20.322Z,1000.01
2022-10-03T06:29:20.206Z,999.97
2022-10-03T06:30:20.123Z,999.98
2022-10-03T06:31:20.131Z,999.99
2022-10-03T06:32:19.964Z,1000.05
2022-10-03T06:33:19.881Z,1000.01
2022-10-03T06:34:19.800Z,1000.03
2022-10-03T06:35:19.722Z,1000.04
2022-10-03T06:36:19.641Z,1000.03
2022-10-03T06:37:19.578Z,1000.03
2022-10-03T06:38:19.478Z,1000.05
2022-10-03T06:39:19.399Z,1000.09
2022-10-03T06:40:19.326Z,1000.13
2022-10-03T06:41:19.236Z,1000.10
2022-10-03T06:42:19.160Z,1000.08
2022-10-03T06:43:19.151Z,1000.06
2022-10-03T06:44:18.993Z,1000.10
2022-10-03T06:45:18.916Z,1000.10
2022-10-03T06:46:18.856Z,1000.11
2022-10-03T06:47:18.752Z,1000.14
2022-10-03T06:48:18.671Z,1000.16
2022-10-03T06:49:18.591Z,1000.15
2022-10-03T06:50:18.511Z,1000.14
2022-10-03T06:51:18.431Z,1000.17
2022-10-03T06:52:18.348Z,1000.16
2022-10-03T06:53:18.306Z,1000.18
2022-10-03T06:54:18.188Z,1000.20
2022-10-03T06:55:18.109Z,1000.17
2022-10-03T06:56:18.027Z,1000.19
2022-10-03T06:57:17.948Z,1000.19
2022-10-03T06:58:18.068Z,1000.17
2022-10-03T06:59:17.786Z,1000.18
2022-10-03T07:00:17.703Z,1000.18
2022-10-03T07:01:17.690Z,1000.17
2022-10-03T07:02:17.583Z,1000.19
2022-10-03T07:03:17.462Z,1000.23
2022-10-03T07:04:17.383Z,1000.22
2022-10-03T07:05:17.303Z,1000.21
2022-10-03T07:06:17.221Z,1000.25
2022-10-03T07:07:17.143Z,1000.21
2022-10-03T07:08:17.061Z,1000.23
2022-10-03T07:09:17.002Z,1000.18
2022-10-03T07:10:16.900Z,1000.20
2022-10-03T07:11:16.823Z,1000.23
2022-10-03T07:12:16.746Z,1000.26
2022-10-03T07:13:16.660Z,1000.26
2022-10-03T07:14:16.579Z,1000.22
2022-10-03T07:15:16.501Z,1000.26
2022-10-03T07:16:31.982Z,1000.27
2022-10-03T07:17:16.405Z,1000.30
2022-10-03T07:18:16.258Z,1000.27
2022-10-03T07:19:16.181Z,1000.26
2022-10-03T07:20:16.100Z,1000.29
2022-10-03T07:21:16.963Z,1000.27
2022-10-03T07:22:15.942Z,1000.25
2022-10-03T07:23:15.862Z,1000.24
2022-10-03T07:24:15.782Z,1000.28
2022-10-03T07:25:15.722Z,1000.28
2022-10-03T07:26:15.625Z,1000.31
2022-10-03T07:27:15.549Z,1000.28
2022-10-03T07:28:15.519Z,1000.29
2022-10-03T07:29:15.384Z,1000.30
2022-10-03T07:30:15.306Z,1000.32
2022-10-03T07:31:15.280Z,1000.32
2022-10-03T07:32:15.146Z,1000.32
2022-10-03T07:33:15.065Z,1000.33
2022-10-03T07:34:14.988Z,1000.33
2022-10-03T07:35:14.908Z,1000.31
2022-10-03T07:36:14.827Z,1000.35
2022-10-03T07:37:14.748Z,1000.35
2022-10-03T07:38:14.670Z,1000.35
2022-10-03T07:39:14.590Z,1000.39
2022-10-03T07:40:14.514Z,1000.38
2022-10-03T07:41:14.450Z,1000.38
2022-10-03T07:42:14.403Z,1000.37
2022-10-03T07:43:14.275Z,1000.39
2022-10-03T07:44:14.196Z,1000.41
2022-10-03T07:45:14.119Z,1000.42
2022-10-03T07:46:14.088Z,1000.41
2022-10-03T07:47:13.958Z,1000.40
2022-10-03T07:48:14.177Z,1000.34
2022-10-03T07:49:18.272Z,1000.35
2022-10-03T07:50:13.724Z,1000.34
2022-10-03T07:51:13.648Z,1000.36
2022-10-03T07:52:13.561Z,1000.38
2022-10-03T07:53:13.482Z,1000.40
2022-10-03T07:54:13.404Z,1000.42
2022-10-03T07:55:13.323Z,1000.44
2022-10-03T07:56:13.245Z,1000.45
2022-10-03T07:57:13.186Z,1000.49
2022-10-03T07:58:13.089Z,1000.48
2022-10-03T07:59:13.007Z,1000.50
2022-10-03T08:00:12.926Z,1000.49
2022-10-03T08:01:12.864Z,1000.51
2022-10-03T08:02:12.843Z,1000.53
2022-10-03T08:03:12.812Z,1000.50
2022-10-03T08:04:12.618Z,1000.55
2022-10-03T08:05:12.530Z,1000.49
2022-10-03T08:06:12.453Z,1000.48
2022-10-03T08:07:12.373Z,1000.49
2022-10-03T08:08:12.295Z,1000.54
2022-10-03T08:09:12.215Z,1000.52
2022-10-03T08:10:12.137Z,1000.52
2022-10-03T08:11:12.057Z,1000.50
2022-10-03T08:12:12.178Z,1000.51
2022-10-03T08:13:11.917Z,1000.52
2022-10-03T08:14:11.821Z,1000.53
2022-10-03T08:15:11.741Z,1000.56
2022-10-03T08:16:11.717Z,1000.56
2022-10-03T08:17:11.582Z,1000.57
2022-10-03T08:18:11.505Z,1000.55
2022-10-03T08:19:11.424Z,1000.56
2022-10-03T08:20:11.348Z,1000.56
2022-10-03T08:21:11.566Z,1000.57
2022-10-03T08:22:11.188Z,1000.57
2022-10-03T08:23:11.109Z,1000.57
2022-10-03T08:24:11.031Z,1000.58
2022-10-03T08:25:10.952Z,1000.56
2022-10-03T08:26:10.873Z,1000.64
2022-10-03T08:27:10.795Z,1000.61
2022-10-03T08:28:10.773Z,1000.61
2022-10-03T08:29:10.656Z,1000.61
2022-10-03T08:30:10.556Z,1000.66
2022-10-03T08:31:10.498Z,1000.67
2022-10-03T08:32:10.499Z,1000.67
2022-10-03T08:33:10.420Z,1000.71
2022-10-03T08:34:10.242Z,1000.78
2022-10-03T08:35:10.161Z,1000.70
2022-10-03T08:36:10.085Z,1000.74
2022-10-03T08:37:10.004Z,1000.73
2022-10-03T08:38:09.930Z,1000.73
2022-10-03T08:39:09.850Z,1000.73
2022-10-03T08:40:09.768Z,1000.68
2022-10-03T08:41:09.692Z,1000.65
2022-10-03T08:42:09.616Z,1000.67
2022-10-03T08:43:09.532Z,1000.71
2022-10-03T08:44:09.457Z,1000.70
2022-10-03T08:45:09.396Z,1000.67
2022-10-03T08:46:09.569Z,1000.68
2022-10-03T08:47:09.221Z,1000.71
2022-10-03T08:48:09.143Z,1000.69
2022-10-03T08:49:09.064Z,1000.69
2022-10-03T08:50:08.988Z,1000.68
2022-10-03T08:51:08.910Z,1000.67
2022-10-03T08:52:09.033Z,1000.67
2022-10-03T08:53:08.750Z,1000.68
2022-10-03T08:54:08.676Z,1000.68
2022-10-03T08:55:08.594Z,1000.68
2022-10-03T08:56:08.519Z,1000.69
2022-10-03T08:57:08.440Z,1000.70
2022-10-03T08:58:08.361Z,1000.68
2022-10-03T08:59:08.283Z,1000.73
2022-10-03T09:00:08.208Z,1000.72
2022-10-03T09:01:08.253Z,1000.72
2022-10-03T09:02:08.324Z,1000.70
2022-10-03T09:04:07.891Z,1000.74
2022-10-03T09:05:07.812Z,1000.73
2022-10-03T09:06:07.738Z,1000.68
2022-10-03T09:07:23.318Z,1000.68
2022-10-03T09:08:07.582Z,1000.68
2022-10-03T09:09:07.504Z,1000.69
2022-10-03T09:10:07.426Z,1000.67
2022-10-03T09:11:07.346Z,1000.71
2022-10-03T09:12:07.267Z,1000.71
2022-10-03T09:13:07.190Z,1000.66
2022-10-03T09:14:07.113Z,1000.71
2022-10-03T09:15:07.036Z,1000.74
2022-10-03T09:16:07.035Z,1000.66
2022-10-03T09:17:06.896Z,1000.69
2022-10-03T09:18:06.805Z,1000.69
2022-10-03T09:19:06.924Z,1000.72
2022-10-03T09:20:06.646Z,1000.69
2022-10-03T09:21:06.567Z,1000.67
2022-10-03T09:22:06.502Z,1000.72
2022-10-03T09:23:06.412Z,1000.71
2022-10-03T09:24:06.338Z,1000.71
2022-10-03T09:25:06.259Z,1000.67
2022-10-03T09:26:06.183Z,1000.72
2022-10-03T09:27:06.103Z,1000.72
2022-10-03T09:28:06.070Z,1000.77
2022-10-03T09:29:05.948Z,1000.74
2022-10-03T09:30:05.872Z,1000.76
2022-10-03T09:31:05.890Z,1000.74
2022-10-03T09:32:05.719Z,1000.78
2022-10-03T09:33:05.659Z,1000.77
2022-10-03T09:34:05.569Z,1000.82
2022-10-03T09:35:07.347Z,1000.80
2022-10-03T09:36:05.410Z,1000.80
2022-10-03T09:37:05.332Z,1000.82
2022-10-03T09:38:05.258Z,1000.79
2022-10-03T09:39:05.177Z,1000.80
2022-10-03T09:40:05.101Z,1000.83
2022-10-03T09:41:05.021Z,1000.86
2022-10-03T09:42:04.945Z,1000.80
2022-10-03T09:43:04.866Z,1000.84
2022-10-03T09:44:04.790Z,1000.85
2022-10-03T09:45:04.709Z,1000.82
2022-10-03T09:46:04.641Z,1000.84
2022-10-03T09:47:04.609Z,1000.81
2022-10-03T09:48:04.479Z,1000.82
2022-10-03T09:49:04.419Z,1000.85
2022-10-03T09:50:04.322Z,1000.83
2022-10-03T09:51:04.245Z,1000.81
2022-10-03T09:52:08.746Z,1000.87
2022-10-03T09:53:04.090Z,1000.88
2022-10-03T09:54:04.016Z,1000.89
2022-10-03T09:55:03.931Z,1000.88
2022-10-03T09:56:03.858Z,1000.84
2022-10-03T09:57:03.779Z,1000.87
2022-10-03T09:58:03.699Z,1000.87
2022-10-03T09:59:03.624Z,1000.87
2022-10-03T10:00:03.546Z,1000.84
2022-10-03T10:01:03.524Z,1000.86
2022-10-03T10:02:03.392Z,1000.88
2022-10-03T10:03:03.315Z,1000.86
2022-10-03T10:04:03.270Z,1000.86
2022-10-03T10:05:03.239Z,1000.89
2022-10-03T10:06:03.085Z,1000.86
2022-10-03T10:07:03.009Z,1000.91
2022-10-03T10:08:02.928Z,1000.89
2022-10-03T10:09:02.851Z,1000.90
2022-10-03T10:10:02.791Z,1000.86
2022-10-03T10:11:02.698Z,1000.89
2022-10-03T10:12:02.622Z,1000.84
2022-10-03T10:13:02.546Z,1000.85
2022-10-03T10:14:07.649Z,1000.87
2022-10-03T10:15:02.391Z,1000.88
2022-10-03T10:16:02.368Z,1000.87
2022-10-03T10:17:02.234Z,1000.90
2022-10-03T10:18:02.161Z,1000.86
2022-10-03T10:19:02.086Z,1000.88
2022-10-03T10:20:02.008Z,1000.88
2022-10-03T10:21:01.949Z,1000.87
2022-10-03T10:22:01.854Z,1000.84
2022-10-03T10:23:01.777Z,1000.87
2022-10-03T10:24:01.701Z,1000.82
2022-10-03T10:25:01.624Z,1000.81
2022-10-03T10:26:01.550Z,1000.79
2022-10-03T10:27:01.470Z,1000.79
2022-10-03T10:28:01.458Z,1000.79
2022-10-03T10:29:01.316Z,1000.81
2022-10-03T10:30:01.244Z,1000.80
2022-10-03T10:31:01.195Z,1000.80
2022-10-03T10:32:01.088Z,1000.78
2022-10-03T10:33:01.014Z,1000.80
2022-10-03T10:34:00.936Z,1000.81
2022-10-03T10:35:00.858Z,1000.83
2022-10-03T10:36:00.781Z,1000.81
2022-10-03T10:37:00.726Z,1000.80
2022-10-03T10:38:00.628Z,1000.80
2022-10-03T10:39:00.552Z,1000.83
2022-10-03T10:40:00.476Z,1000.80
2022-10-03T10:41:03.679Z,1000.84
2022-10-03T10:42:00.324Z,1000.81
2022-10-03T10:43:00.245Z,1000.79
2022-10-03T10:44:00.169Z,1000.80
2022-10-03T10:45:00.095Z,1000.84
2022-10-03T10:46:00.038Z,1000.82
2022-10-03T10:47:00.026Z,1000.78
2022-10-03T10:47:59.863Z,1000.78
2022-10-03T10:49:03.658Z,1000.72
2022-10-03T10:49:59.712Z,1000.73
2022-10-03T10:50:59.632Z,1000.71
2022-10-03T10:51:59.558Z,1000.69
2022-10-03T10:52:59.497Z,1000.71
2022-10-03T10:53:59.404Z,1000.71
2022-10-03T10:54:59.326Z,1000.72
2022-10-03T10:55:59.249Z,1000.75
2022-10-03T10:56:59.174Z,1000.77
2022-10-03T10:57:59.108Z,1000.77
2022-10-03T10:58:59.019Z,1000.78
2022-10-03T10:59:58.946Z,1000.76
2022-10-03T11:00:58.948Z,1000.71
2022-10-03T11:01:58.789Z,1000.72
2022-10-03T11:02:58.713Z,1000.77
2022-10-03T11:03:58.638Z,1000.82
2022-10-03T11:04:58.607Z,1000.76
2022-10-03T11:05:58.486Z,1000.78
2022-10-03T11:06:58.410Z,1000.75
2022-10-03T11:07:58.335Z,1000.80
2022-10-03T11:08:58.274Z,1000.76
2022-10-03T11:09:58.184Z,1000.72
2022-10-03T11:10:58.107Z,1000.73
2022-10-03T11:11:58.029Z,1000.71
2022-10-03T11:12:57.955Z,1000.69
2022-10-03T11:13:57.879Z,1000.68
2022-10-03T11:15:31.262Z,1000.73
2022-10-03T11:15:57.775Z,1000.70
2022-10-03T11:16:57.651Z,1000.72
2022-10-03T11:17:57.577Z,1000.67
2022-10-03T11:18:57.652Z,1000.73
2022-10-03T11:19:57.424Z,1000.74
2022-10-03T11:20:57.349Z,1000.75
2022-10-03T11:21:57.272Z,1000.72
2022-10-03T11:22:59.968Z,1000.75
2022-10-03T11:23:57.121Z,1000.76
2022-10-03T11:24:57.068Z,1000.74
2022-10-03T11:25:56.972Z,1000.78
2022-10-03T11:26:56.895Z,1000.74
2022-10-03T11:27:56.857Z,1000.78
2022-10-03T11:28:56.743Z,1000.77
2022-10-03T11:29:56.664Z,1000.80
2022-10-03T11:30:56.588Z,1000.83
2022-10-03T11:31:56.529Z,1000.83
2022-10-03T11:32:56.441Z,1000.82
2022-10-03T11:33:56.362Z,1000.80
2022-10-03T11:34:56.285Z,1000.78
2022-10-03T11:35:56.203Z,1000.75
2022-10-03T11:36:56.132Z,1000.73
2022-10-03T11:37:56.053Z,1000.75
2022-10-03T11:38:55.978Z,1000.72
2022-10-03T11:39:55.902Z,1000.73
2022-10-03T11:40:55.843Z,1000.69
2022-10-03T11:41:55.749Z,1000.65
2022-10-03T11:42:55.672Z,1000.63
2022-10-03T11:44:01.398Z,1000.65
2022-10-03T11:44:55.518Z,1000.64
2022-10-03T11:45:55.531Z,1000.63
2022-10-03T11:46:55.367Z,1000.61
2022-10-03T11:47:55.291Z,1000.59
2022-10-03T11:48:55.213Z,1000.61
2022-10-03T11:49:55.137Z,1000.64
2022-10-03T11:50:55.061Z,1000.63
2022-10-03T11:51:54.987Z,1000.60
2022-10-03T11:52:54.910Z,1000.61
2022-10-03T11:54:13.020Z,1000.61
2022-10-03T11:54:54.757Z,1000.61
2022-10-03T11:55:54.687Z,1000.61
2022-10-03T11:56:54.630Z,1000.64
2022-10-03T11:57:54.531Z,1000.61
2022-10-03T11:58:54.452Z,1000.58
2022-10-03T11:59:54.378Z,1000.60
2022-10-03T12:00:54.299Z,1000.57
2022-10-03T12:01:54.268Z,1000.51
2022-10-03T12:02:54.313Z,1000.56
2022-10-03T12:03:54.074Z,1000.50
2022-10-03T12:04:53.996Z,1000.48
2022-10-03T12:05:53.922Z,1000.50
2022-10-03T12:06:53.844Z,1000.48
2022-10-03T12:07:58.159Z,1000.49
2022-10-03T12:08:53.693Z,1000.49
2022-10-03T12:09:53.617Z,1000.47
2022-10-03T12:10:53.538Z,1000.53
2022-10-03T12:11:53.464Z,1000.53
2022-10-03T12:12:53.409Z,1000.51
2022-10-03T12:13:53.314Z,1000.48
2022-10-03T12:14:53.236Z,1000.49
2022-10-03T12:15:53.165Z,1000.48
2022-10-03T12:16:53.341Z,1000.51
2022-10-03T12:17:53.011Z,1000.53